NCAR-RAP Real-Time Weather Data

Output produced by METARs form (21 May 2019  10:52 UTC)
found at http://weather.rap.ucar.edu/surface/
 
RJTT 211030Z 19011KT 9999 FEW010 BKN012 BKN015 21/20 Q1001 BECMG 30008KT FEW010 SCT012
RJTT 211027Z 19010KT 9999 FEW010 BKN012 BKN015 21/20 Q1001 RMK 1ST010 5ST012 7CU015 A2957
RJTT 211008Z 27004KT 230V320 6000 -SHRA FEW005 BKN010 BKN014 21/20 Q1001 RMK 1ST005 5ST010 7CU014 A2956
RJTT 211000Z 28005KT 240V310 5000 -SHRA BR FEW005 BKN010 BKN012 21/20 Q1001 NOSIG RMK 1ST005 5ST010 7CU012 A2956 9999S-SW
RJTT 210930Z VRB02KT 4500 -SHRA BR FEW002 SCT006 BKN008 21/20 Q1000 NOSIG RMK 1ST002 3ST006 6ST008 A2956 9999SE
RJTT 210914Z 28006KT 230V310 4500 -SHRA BR FEW002 SCT004 BKN006 21/20 Q1000 RMK 1ST002 3ST004 6ST006 A2954
RJTT 210900Z 30006KT 3000 -SHRA BR FEW002 BKN006 BKN012 21/20 Q1000 NOSIG RMK 1ST002 5ST006 7CU012 A2954 7000N
RJTT 210846Z 30007KT 9999 -SHRA FEW002 BKN004 BKN006 21/21 Q1000 RMK 1ST002 5ST004 6ST006 A2954
RJTT 210841Z 30007KT 6000 SHRA BR FEW002 SCT004 BKN006 21/20 Q1000 RMK 1ST002 3ST004 5ST006 A2953 BR E-S
RJTT 210834Z 27006KT 210V310 3000 R34L/P2000N R22/P2000N R34R/P2000N R05/2000N SHRA BR FEW002 SCT003 BKN009 21/20 Q1000 RMK 1ST002 3ST003 6CU009 A2953
RJTT 210830Z 25005KT 2200 R34L/P2000N R22/P2000N R34R/P2000N R05/2000N SHRA BR FEW002 BKN004 BKN009 21/20 Q1000 BECMG 8000 NSW FEW008 BKN015 RMK 1ST002 5ST004 6CU009 A2953
RJTT 210826Z 22004KT 2200 SHRA BR FEW002 BKN004 BKN010 21/21 Q0999 RMK 1ST002 5ST004 6CU010 A2953
RJTT 210820Z 21004KT 150V260 3000 SHRA BR FEW002 BKN004 BKN010 22/21 Q0999 RMK 1ST002 5ST004 7CU010 A2952
RJTT 210814Z 22004KT 4000 -SHRA BR FEW003 BKN005 BKN010 22/21 Q0999 RMK 1ST003 5ST005 7CU010 A2952
RJTT 210800Z 23006KT 150V280 4800 -SHRA BR FEW003 SCT005 BKN012 22/21 Q0999 BECMG 26006KT 8000 NSW FEW008 BKN015
RJTT 210749Z 19007KT 4500 R34L/P2000N R22/P2000N R16L/P2000N R23/2000N -SHRA BR FEW003 SCT006 BKN012 22/21 Q0999 RMK 1ST003 3ST006 5CU012 A2953
RJTT 210740Z 20007KT 090V240 6000 R34L/P2000N R22/P2000N R16L/2000N R23/2000N -SHRA BR FEW004 SCT009 BKN012 22/21 Q0999 RMK 1ST004 3ST009 5CU012 A2953 BR E-S
RJTT 210730Z 20009KT 8000 -SHRA FEW002 BKN007 BKN020 22/21 Q1000 BECMG FEW008 BKN012 RMK 1ST002 5ST007 6CU020 A2953
RJTT 210700Z 19010KT 7000 -SHRA FEW003 BKN007 BKN025 21/20 Q0999 BECMG FEW008 BKN012 RMK 1ST003 5ST007 6CU025 A2953
RJTT 210641Z 22008KT 180V250 4500 R34L/P2000N R22/P2000N R16L/P2000N R23/1000V1800U SHRA BR FEW001 BKN005 BKN010 21/20 Q1000 RMK 1ST001 5ST005 6CU010 A2953
RJTT 210630Z 18014KT 5000 R34L/P2000N R22/P2000N R16L/P2000N R23/0900V1300D SHRA BR FEW001 SCT004 BKN007 21/21 Q0999 TEMPO FEW003 BKN005
RJTT 210628Z 18015KT 5000 R34L/P2000N R22/P2000N R16L/P2000N R23/0900V1700D SHRA BR FEW001 SCT007 BKN040 21/21 Q0999 RMK 1ST001 4ST007 5CU040 A2953
RJTT 210625Z 17016KT 3500 R34L/P2000N R22/P2000N R16L/P2000N R23/1000V1700D SHRA BR FEW001 SCT009 BKN040 21/21 Q0999 RMK 1ST001 3ST009 5CU040 A2952
RJTT 210609Z 18014KT 2200 R34L/1400VP2000U R22/P2000N R16L/0900VP2000D R23/1200V1600U +SHRA BR FEW001 SCT005 BKN025 21/21 Q0999 RMK 1ST001 3ST005 5CU025 A2952
RJTT 210607Z 19015KT 2200 R34L/1500VP2000U R22/P2000N R16L/0800VP2000D R23/1400U +SHRA BR FEW001 SCT005 BKN025 21/21 Q0999 RMK 1ST001 3ST005 5CU025 A2952
RJTT 210606Z 19014KT 2200 R34L/1400VP2000D R22/P2000N R16L/1400VP2000D R23/1300N +SHRA BR FEW001 SCT005 BKN025 21/21 Q0999 RMK 1ST001 3ST005 5CU025 A2952
RJTT 210600Z 19014KT 3000 R34L/2000N R22/P2000N R16L/2000N R23/1300N SHRA BR FEW002 SCT005 BKN020 21/21 Q0999 TEMPO FEW003 BKN005 RMK 1ST002 3ST005 5CU020 A2953
RJTT 210549Z 18013KT 3000 R34L/P2000N R22/2000N R16L/P2000N R23/1000V1700N SHRA BR FEW002 SCT005 BKN020 21/21 Q0999 RMK 1ST002 3ST005 5CU020 A2953
RJTT 210538Z 18014KT 3500 R34L/P2000N R22/P2000N R16L/1600VP2000N R23/1200V2000U SHRA BR FEW003 SCT030 BKN040 21/21 Q1000 RMK 1ST003 3CU030 5CU040 A2953
RJTT 210530Z 18017KT 2500 R34L/P2000N R22/P2000N R16L/1500VP2000U R23/1200D SHRA BR FEW003 SCT020 BKN030 21/21 Q1000 TEMPO FEW005 BKN008 RMK 1ST003 3CU020 5CU030 A2953
RJTT 210525Z 18019KT 2500 R34L/P2000N R22/P2000N R16L/1000VP2000D R23/1300N SHRA BR FEW003 SCT010 BKN020 21/21 Q1000 RMK 1ST003 3CU010 5CU020 A2953
RJTT 210522Z 19020KT 2500 R34L/P2000N R22/2000N R16L/P2000N R23/1400N SHRA BR FEW003 SCT010 BKN020 21/21 Q1000 RMK 1ST003 3CU010 5CU020 A2953
RJTT 210517Z 19022KT 2500 R34L/2000U R22/2000N R16L/P2000N R23/0900V1400U SHRA BR FEW003 SCT010 BKN020 21/21 Q1000 RMK 1ST003 3CU010 5CU020 A2953
RJTT 210513Z 18022KT 2500 R34L/2000D R22/2000D R16L/P2000N R23/0900V1300N SHRA BR FEW003 SCT010 BKN020 21/21 Q1000 RMK 1ST003 3CU010 5CU020 A2953
RJTT 210508Z 18020KT 2300 R34L/P2000N R22/P2000N R16L/2000N R23/0900V1400D SHRA BR FEW003 BKN008 BKN010 21/21 Q1000 RMK 1ST003 5ST008 6CU010 A2953
RJTT 210502Z 19017KT 2300 R34L/2000N R22/2000N R16L/2000N R23/0900V1700D SHRA BR FEW003 BKN007 BKN010 21/20 Q1000 RMK 1ST003 5ST007 6CU010 A2954
RJTT 210500Z 19017KT 2300 R34L/2000N R22/2000N R16L/2000N R23/1000V1900D SHRA BR FEW004 BKN007 BKN010 21/20 Q1000 TEMPO FEW003 BKN005
RJTT 210450Z 18017KT 2300 R34L/P2000N R22/P2000N R16L/2000N R23/1500U SHRA BR FEW005 BKN010 BKN015 21/21 Q1000 RMK 1ST005 5CU010 6CU015 A2955 SEV TURB OBS AT 0438Z 5NM S KASGA 4000FT BY B738
RJTT 210446Z 18017KT 2500 R34L/P2000N R22/2000N R16L/2000N R23/1100V1600U SHRA BR FEW005 BKN010 BKN015 21/20 Q1000 RMK 1ST005 5CU010 6CU015 A2954
RJTT 210441Z 18019KT 2500 R34L/2000U R22/1900U R16L/2000N R23/0750V1400U SHRA BR FEW005 BKN010 BKN015 21/20 Q1000 RMK 1ST005 5CU010 6CU015 A2954
RJTT 210434Z 17021KT 2000 R34L/1800N R22/1100VP2000U R16L/1400VP2000U R23/0800V1300D +SHRA BR FEW006 BKN012 BKN015 21/20 Q1000 RMK 1ST006 5CU012 6CU015 A2953
RJTT 210430Z 18020KT 2000 R34L/1800U R22/1100V2000U R16L/1300VP2000N R23/0800V2000D +SHRA BR FEW006 BKN012 BKN015 21/20 Q1000 TEMPO 18022G32KT FEW005 BKN008 RMK 1ST006 5CU012 6CU015 A2953
RJTT 210427Z 18020KT 2800 R34L/1800D R22/1100VP2000D R16L/1300VP2000D R23/0900V2000D +SHRA BR FEW006 BKN012 BKN015 21/20 Q1000 RMK 1ST006 5CU012 6CU015 A2953
RJTT 210422Z 18022G33KT 3000 R34L/1600VP2000N R22/1500VP2000N R16L/1600VP2000N R23/1700N SHRA BR FEW007 BKN012 BKN015 21/20 Q1000 RMK 1ST007 5CU012 6CU015 A2954
RJTT 210413Z 17021G33KT 4000 R34L/P2000N R22/P2000N R16L/2000N R23/1800U SHRA BR FEW007 BKN012 BKN015 21/20 Q1000 RMK 1ST007 5CU012 6CU015 A2953
RJTT 210400Z 17021KT 4000 R34L/P2000N R22/P2000N R16L/P2000N R23/1900U SHRA BR FEW007 BKN012 BKN015 21/20 Q1000 TEMPO 18034G44KT 3000 +SHRA BR FEW005 BKN008
RJTT 210330Z 17023KT 4000 R34L/P2000N R22/P2000N R16L/P2000N R23/1400VP2000D SHRA BR FEW007 SCT013 BKN015 21/20 Q1000 TEMPO 18034G44KT 3000 +SHRA BR FEW005 BKN008
RJTT 210316Z 17022G33KT 4500 SHRA BR FEW007 BKN015 BKN020 21/20 Q1000 RMK 1ST007 5CU015 6CU020 A2954
RJTT 210307Z 17023G33KT 4500 -SHRA BR FEW007 BKN015 BKN020 21/20 Q1000 RMK 1ST007 5CU015 6CU020 A2954
RJTT 210300Z 17022KT 5000 SHRA BR FEW007 BKN015 BKN020 21/20 Q1000 TEMPO 18034G44KT 3000 +SHRA BR FEW005 BKN008 RMK 1ST007 5CU015 6CU020 A2954
RJTT 210230Z 17023KT 4500 SHRA BR FEW007 BKN015 BKN020 21/20 Q1001 TEMPO 18034G44KT 3000 +SHRA BR FEW005 BKN008
RJTT 210200Z 17026KT 4500 R34L/P2000N R22/P2000N R16L/P2000N R23/2000N SHRA BR FEW007 BKN015 BKN020 21/20 Q1001 TEMPO 18034G44KT 3000 +SHRA BR FEW005 BKN008 RMK 1ST007 5CU015 6CU020 A2956
RJTT 210130Z 17026KT 4500 SHRA BR FEW007 BKN015 BKN020 21/20 Q1001 TEMPO 18034G44KT 3000 +SHRA BR FEW005 BKN008 RMK 1ST007 5CU015 6CU020 A2956
RJTT 210112Z 17028KT 5000 -SHRA BR FEW007 BKN015 BKN020 21/20 Q1000 RMK 1ST007 5CU015 6CU020 A2955
RJTT 210100Z 17028KT 8000 -SHRA FEW007 BKN015 BKN020 21/20 Q1000 TEMPO 18034G44KT 3000 +SHRA BR FEW005 BKN008 RMK 1ST007 5CU015 6CU020 A2955
RJTT 210044Z 17026G37KT 6000 -SHRA FEW007 BKN015 BKN020 21/20 Q1001 RMK 1ST007 5CU015 6CU020 A2956
RJTT 210030Z 16026KT 4500 R34L/P2000N R22/P2000N R16L/P2000N R23/P2000N -SHRA BR FEW007 BKN014 BKN020 21/20 Q1001 TEMPO 18034G44KT 3000 +SHRA BR FEW005 BKN008 RMK 1ST007 5CU014 6CU020 A2957
RJTT 210013Z 16027KT 6000 -SHRA FEW007 BKN014 BKN020 21/20 Q1001 RMK 1ST007 5CU014 6CU020 A2956
RJTT 210000Z 16027KT 4000 R34L/P2000N R22/P2000N R16L/P2000N R23/P2000N -SHRA BR FEW007 BKN013 BKN020 21/20 Q1001 TEMPO 18034G44KT 3000 +SHRA BR FEW005 BKN008
RJTT 202330Z 16023KT 4000 R34L/P2000N R22/P2000N R16L/P2000N R23/P2000N SHRA BR FEW007 SCT010 BKN012 20/20 Q1002 TEMPO 18030G40KT 3000 +SHRA BR FEW005 BKN008 RMK 1ST007 4ST010 6CU012 A2959
RJTT 202300Z 16020KT 4500 R34L/P2000N R22/P2000N R16L/P2000N R23/1900N SHRA BR FEW007 SCT008 BKN012 20/19 Q1002 TEMPO 3000 +SHRA BR FEW005 BKN008
RJTT 202237Z 16019KT 3500 R34L/P2000N R22/P2000N R16L/P2000N R23/P2000N SHRA BR FEW009 BKN012 BKN020 20/19 Q1003 RMK 1ST009 5CU012 6CU020 A2962
RJTT 202230Z 15018KT 3000 R34L/P2000N R22/2000N R16L/P2000N R23/P2000N SHRA BR FEW008 BKN012 BKN020 20/19 Q1003 TEMPO FEW005 BKN008 RMK 1ST008 5CU012 6CU020 A2962
RJTT 202200Z 14012KT 4000 SHRA BR FEW008 BKN012 BKN017 20/19 Q1003 TEMPO 3000 SHRA BR FEW005 BKN008 RMK 1ST008 5CU012 6CU017 A2964 8000SE
RJTT 202134Z 15013KT 2500 R34L/P2000N R22/2000N R16L/P2000N R23/P2000N +SHRA BR FEW009 SCT014 BKN017 20/19 Q1004 RMK 1ST009 4CU014 6CU017 A2965
RJTT 202130Z 15012KT 3500 SHRA BR FEW010 SCT014 BKN017 20/19 Q1004 TEMPO 3000 SHRA BR FEW005 BKN008 RMK 1ST010 4CU014 6CU017 A2966
RJTT 202123Z 15012KT 5000 SHRA BR FEW010 BKN014 BKN017 20/19 Q1004 RMK 1ST010 5CU014 6CU017 A2966
RJTT 202116Z 15010KT 6000 SHRA BR FEW010 BKN014 BKN020 20/19 Q1004 RMK 1ST010 5CU014 6CU020 A2966 BR N-E
RJTT 202108Z 14010KT 6000 -SHRA BR FEW010 BKN014 BKN020 20/19 Q1004 RMK 1ST010 5CU014 6CU020 A2966 BR N
RJTT 202100Z 14010KT 6000 -SHRA FEW010 BKN015 BKN020 20/19 Q1004 TEMPO 3000 SHRA BR FEW005 BKN008 RMK 1ST010 5CU015 6CU020 A2966
RJTT 202030Z 14012KT 4000 -SHRA BR FEW010 BKN016 BKN025 20/19 Q1004 TEMPO 3000 SHRA BR FEW005 BKN008 RMK 1ST010 5CU016 6CU025 A2967
RJTT 202025Z 14012KT 4000 -SHRA BR FEW010 BKN017 BKN025 20/19 Q1004 RMK 1ST010 5CU017 6CU025 A2967
RJTT 202000Z 14014KT 8000 -SHRA FEW008 BKN017 BKN025 20/19 Q1005 TEMPO 3000 SHRA BR FEW005 BKN008 RMK 1ST008 5CU017 6CU025 A2968
RJTT 201945Z 14015KT 5000 -SHRA BR FEW008 BKN017 BKN030 19/19 Q1005 RMK 1ST008 5CU017 6CU030 A2969
RJTT 201934Z 15016KT 4000 -SHRA BR FEW008 BKN017 BKN030 20/18 Q1005 RMK 1ST008 5CU017 6CU030 A2970
RJTT 201930Z 15018KT 5000 -SHRA BR FEW010 BKN017 BKN030 20/18 Q1005 TEMPO 3000 SHRA BR FEW005 BKN008
RJTT 201920Z 15018KT 6000 -SHRA FEW010 BKN017 BKN020 20/18 Q1006 RMK 1ST010 6CU017 7CU020 A2971
RJTT 201908Z 15015KT 5000 -SHRA BR FEW010 BKN017 BKN020 20/18 Q1006 RMK 1ST010 6CU017 7CU020 A2972
RJTT 201900Z 15017KT 9999 -SHRA FEW010 BKN017 BKN020 20/18 Q1006 TEMPO 3000 SHRA BR FEW005 BKN008 RMK 1ST010 5CU017 7CU020 A2972
RJTT 201830Z 15019KT 8000 VCSH FEW008 BKN017 BKN020 20/18 Q1006 TEMPO 3000 SHRA BR FEW005 BKN008
RJTT 201821Z 15018KT 7000 -SHRA FEW008 SCT013 BKN017 19/19 Q1006 RMK 1ST008 3CU013 7CU017 A2973
RJTT 201804Z 14016KT 4000 -SHRA BR FEW008 SCT013 BKN016 19/18 Q1006 RMK 1ST008 3CU013 6CU016 A2973
RJTT 201800Z 14015KT 7000 -SHRA FEW008 BKN016 BKN020 19/18 Q1006 TEMPO 4000 -SHRA BR FEW008 BKN012 RMK 1ST008 5CU016 6CU020 A2973
RJTT 201730Z 14014KT 9999 -SHRA FEW005 SCT013 BKN030 19/19 Q1007 TEMPO 4000 -SHRA BR FEW008 BKN012 RMK 1ST005 4CU013 6CU030 A2976
RJTT 201700Z 14013KT 6000 -SHRA FEW005 SCT013 BKN020 19/18 Q1008 TEMPO 3000 SHRA BR FEW005 BKN008 RMK 1ST005 4CU013 6CU020 A2978
RJTT 201646Z 15014KT 5000 -SHRA BR FEW005 SCT008 BKN020 19/18 Q1008 RMK 1ST005 3ST008 6CU020 A2978
RJTT 201630Z 15014KT 4000 -SHRA BR FEW008 SCT015 BKN020 19/18 Q1009 TEMPO 3000 SHRA BR FEW008 BKN012
RJTT 201622Z 15015KT 4500 -SHRA BR FEW010 SCT020 BKN030 19/18 Q1009 RMK 1CU010 4CU020 6CU030 A2980
RJTT 201615Z 15016KT 6000 -SHRA BR FEW012 SCT020 BKN030 19/18 Q1009 RMK 1CU012 3CU020 6CU030 A2980 BR N
RJTT 201606Z 15014KT 5000 -SHRA BR FEW010 SCT020 BKN035 20/18 Q1009 RMK 1CU010 4CU020 7SC035 A2981
RJTT 201600Z 15013KT 9999 -SHRA FEW017 SCT020 BKN035 20/18 Q1009 TEMPO FEW008 BKN012 RMK 1CU017 3CU020 7SC035 A2981
RJTT 201530Z 15014KT 9999 -SHRA FEW018 SCT020 BKN040 20/17 Q1010 NOSIG RMK 1CU018 3CU020 5CU040 A2982
RJTT 201500Z 15012KT 9999 -SHRA FEW019 SCT040 BKN080 20/17 Q1010 NOSIG RMK 1CU019 3CU040 7AC080 A2984
RJTT 201430Z 16014KT 9999 SCT020 BKN060 20/17 Q1011 NOSIG RMK 3CU020 7SC060 A2985
RJTT 201400Z 16013KT 9999 -SHRA FEW020 BKN060 20/17 Q1011 NOSIG RMK 2CU020 7SC060 A2987
RJTT 201330Z 16015KT 9999 -SHRA FEW020 BKN050 BKN070 20/17 Q1011 NOSIG RMK 2CU020 5SC050 7AC070 A2988
RJTT 201300Z 15014KT 9999 -SHRA FEW020 BKN050 BKN070 20/17 Q1012 NOSIG RMK 2CU020 5SC050 7AC070 A2989
RJTT 201230Z 15013KT 9999 -SHRA FEW020 BKN050 20/17 Q1012 NOSIG RMK 2CU020 7SC050 A2991
RJTT 201200Z 14011KT 9999 -SHRA FEW020 BKN050 20/17 Q1013 NOSIG RMK 1CU020 7SC050 A2992
RJTT 201130Z 15013KT 9999 VCSH FEW020 BKN050 20/17 Q1013 NOSIG RMK 1CU020 7SC050 A2993
RJTT 201100Z 15011KT 9999 VCSH FEW020 BKN060 20/16 Q1013 NOSIG
RJTT 201030Z 17012KT 9999 FEW020 BKN050 20/16 Q1013 NOSIG RMK 1CU020 7SC050 A2994
RJTT 201000Z 17015KT 9999 FEW020 BKN050 21/16 Q1013 NOSIG RMK 1CU020 7SC050 A2994
RJTT 200930Z 17014KT 9999 FEW020 BKN050 21/16 Q1013 NOSIG RMK 1CU020 7SC050 A2994
RJTT 200900Z 17018KT 9999 -SHRA FEW020 SCT030 BKN060 21/16 Q1013 NOSIG RMK 1CU020 3CU030 5SC060 A2994
RJTT 200830Z 18013KT 9999 -SHRA FEW020 BKN030 BKN080 22/16 Q1013 NOSIG RMK 1CU020 5CU030 7AC080 A2994
RJTT 200800Z 17011KT 9999 FEW015 BKN030 BKN080 22/16 Q1013 NOSIG RMK 1CU015 6CU030 7AC080 A2994
RJTT 200730Z 18012KT 9999 FEW020 BKN030 BKN080 22/15 Q1014 NOSIG RMK 1CU020 5CU030 7AC080 A2994
RJTT 200700Z 18013KT 9999 FEW020 BKN030 BKN060 21/16 Q1014 NOSIG RMK 1CU020 5CU030 7SC060 A2995
RJTT 200630Z 17017KT 9999 -SHRA FEW020 BKN030 BKN060 21/16 Q1014 NOSIG RMK 1CU020 5CU030 7SC060 A2996
RJTT 200600Z 17014KT 140V210 9999 FEW020 SCT040 BKN080 23/15 Q1014 NOSIG RMK 1CU020 4CU040 7AC080 A2996
RJTT 200530Z 18010KT 9999 FEW020 SCT040 BKN080 22/16 Q1014 NOSIG RMK 1CU020 4CU040 7AC080 A2996
RJTT 200500Z 16010KT 9999 FEW020 SCT040 BKN080 23/16 Q1015 NOSIG RMK 1CU020 3CU040 6AC080 A2997
RJTT 200430Z 17013KT 9999 -SHRA FEW020 SCT040 BKN080 21/16 Q1015 NOSIG RMK 1CU020 4CU040 6AC080 A2999
RJTT 200400Z 19012KT 9999 FEW020 SCT040 BKN080 24/15 Q1015 NOSIG RMK 1CU020 3CU040 5AC080 A3000
RJTT 200330Z 17010KT 9999 FEW020 BKN080 24/15 Q1016 NOSIG RMK 1CU020 5AC080 A3001
RJTT 200300Z 16014KT 9999 FEW020 BKN060 22/13 Q1016 NOSIG RMK 1CU020 7SC060 A3003
RJTT 200242Z 16023KT 9999 FEW020 BKN050 21/14 Q1017 RMK 1CU020 7SC050 A3003
RJTT 200230Z 18013G26KT 130V230 9999 FEW020 SCT050 BKN070 23/14 Q1017 NOSIG RMK 1CU020 4SC050 7AC070 A3003
RJTT 200200Z 19011KT 9999 FEW020 BKN070 23/13 Q1017 NOSIG RMK 1CU020 5AC070 A3003
RJTT 200130Z 19010KT 120V210 9999 FEW020 SCT070 BKN/// 24/14 Q1017 NOSIG RMK 1CU020 3AC070 A3003
RJTT 200100Z 18009KT 9999 FEW020 SCT070 BKN/// 23/13 Q1017 NOSIG RMK 1CU020 3AC070 A3004
RJTT 200030Z 13009KT 9999 FEW020 BKN/// 23/14 Q1017 NOSIG
RJTT 200000Z 12008KT 9999 FEW020 BKN/// 22/16 Q1017 NOSIG RMK 1CU020 A3005
RJTT 192330Z 12008KT 9999 FEW020 SCT070 BKN/// 21/16 Q1017 NOSIG RMK 1CU020 3AC070 A3005
RJTT 192300Z 12009KT 9999 FEW020 BKN070 21/16 Q1018 NOSIG RMK 1CU020 6AC070 A3007
RJTT 192230Z 13006KT 9999 FEW020 SCT070 BKN/// 20/16 Q1018 NOSIG
RJTT 192200Z 13005KT 9999 FEW020 SCT070 BKN/// 19/15 Q1019 NOSIG RMK 1CU020 4AC070 A3010
RJTT 192130Z 14005KT 110V180 9999 FEW020 BKN/// 19/16 Q1019 NOSIG
RJTT 192100Z 11004KT 9999 FEW020 SCT070 BKN/// 19/16 Q1019 NOSIG RMK 1CU020 3AC070 A3011
RJTT 192030Z 13006KT 9999 FEW020 SCT070 BKN/// 18/16 Q1019 NOSIG RMK 1CU020 3AC070 A3011
RJTT 192000Z 12009KT 9999 FEW020 SCT040 BKN070 18/16 Q1019 NOSIG RMK 1CU020 3CU040 6AC070 A3010
RJTT 191930Z 12008KT 9999 FEW020 SCT040 BKN070 18/16 Q1019 NOSIG RMK 1CU020 3CU040 6AC070 A3010
RJTT 191900Z 13008KT 9999 FEW030 BKN070 18/16 Q1019 NOSIG RMK 1CU030 7AC070 A3010
RJTT 191830Z 12008KT 9999 FEW030 BKN070 18/16 Q1019 NOSIG RMK 1CU030 6AC070 A3011
RJTT 191800Z 12010KT 9999 FEW030 BKN070 19/16 Q1019 NOSIG RMK 1CU030 7AC070 A3011
RJTT 191730Z 16007KT 9999 FEW030 BKN070 18/15 Q1019 NOSIG RMK 1CU030 6AC070 A3011
RJTT 191700Z 17004KT 9999 FEW030 BKN060 17/14 Q1019 NOSIG RMK 1CU030 6SC060 A3012
RJTT 191630Z 13003KT 9999 FEW030 BKN060 18/15 Q1020 NOSIG RMK 1CU030 6SC060 A3013
RJTT 191600Z 15006KT 130V190 9999 FEW030 SCT060 18/14 Q1020 NOSIG RMK 1CU030 3SC060 A3013
RJTT 191530Z 15006KT 9999 FEW030 SCT060 18/14 Q1020 NOSIG RMK 1CU030 3SC060 A3014
RJTT 191500Z 14009KT 9999 FEW030 BKN060 BKN/// 18/15 Q1021 NOSIG RMK 1CU030 5SC060 A3015
RJTT 191430Z 14007KT 9999 FEW030 SCT060 BKN/// 18/15 Q1021 NOSIG
RJTT 191400Z 15008KT 9999 FEW030 BKN/// 18/14 Q1021 NOSIG RMK 1CU030 A3017
RJTT 191330Z 15006KT 9999 FEW030 BKN/// 17/14 Q1022 NOSIG
RJTT 191300Z 15007KT 9999 FEW030 BKN/// 18/14 Q1022 NOSIG RMK 1CU030 A3018
RJTT 191230Z 14007KT 9999 FEW030 BKN/// 19/15 Q1022 NOSIG
RJTT 191200Z 17009KT 9999 FEW030 BKN/// 19/14 Q1022 NOSIG RMK 1CU030 A3018
RJTT 191130Z 17008KT 9999 FEW030 BKN/// 19/13 Q1022 NOSIG
RJTT 191100Z 16010KT 9999 FEW030 SCT/// 19/13 Q1022 NOSIG RMK 1CU030 A3018
RJTT 191030Z 15012KT 9999 FEW030 SCT/// 19/13 Q1021 NOSIG RMK 1CU030 A3017
RJTT 191000Z 16011KT 9999 FEW030 SCT/// 20/13 Q1021 NOSIG RMK 1CU030 A3017
RJTT 190930Z 16012KT 9999 FEW030 BKN/// 20/13 Q1021 NOSIG
RJTT 190900Z 16016KT 9999 FEW030 SCT040 BKN/// 21/14 Q1021 NOSIG RMK 1CU030 3SC040 A3015
RJTT 190830Z 19011KT 9999 FEW030 SCT040 BKN/// 22/14 Q1021 NOSIG
RJTT 190800Z 17011KT 9999 FEW035 SCT050 BKN070 22/13 Q1021 NOSIG RMK 1CU035 4SC050 6AC070 A3016
RJTT 190730Z 19015KT 9999 -RA FEW035 SCT045 BKN070 22/13 Q1021 NOSIG RMK 1CU035 4SC045 6AC070 A3016
RJTT 190700Z 20013KT 9999 FEW035 SCT045 24/13 Q1021 NOSIG RMK 1CU035 3SC045 A3015
RJTT 190630Z 20013KT 9999 FEW035 SCT060 23/12 Q1020 NOSIG RMK 1CU035 4SC060 A3014
RJTT 190600Z 20014KT 9999 -SHRA FEW035 SCT045 BKN070 22/12 Q1020 NOSIG RMK 1CU035 3CU045 6AC070 A3014
RJTT 190530Z 20015KT 9999 -SHRA FEW035 SCT045 BKN070 24/13 Q1021 NOSIG RMK 1CU035 3CU045 6AC070 A3016
RJTT 190500Z 20013KT 9999 FEW035 SCT045 BKN070 24/12 Q1021 NOSIG RMK 1CU035 3CU045 6AC070 A3016
RJTT 190430Z 19011KT 9999 FEW035 BKN070 23/13 Q1021 NOSIG RMK 1CU035 6AC070 A3017
RJTT 190400Z 17010KT 9999 FEW030 BKN070 23/12 Q1021 NOSIG RMK 1CU030 5AC070 A3017
RJTT 190330Z 16010KT 120V200 9999 FEW030 24/13 Q1022 NOSIG RMK 1CU030 A3018
RJTT 190300Z 16007KT 130V190 9999 FEW030 SCT050 BKN070 22/14 Q1022 NOSIG RMK 1CU030 4SC050 6AC070 A3019
RJTT 190230Z 16009KT 9999 -SHRA FEW030 BKN050 BKN080 22/15 Q1022 NOSIG RMK 2CU030 5SC050 7AC080 A3020
RJTT 190200Z 13012KT 9999 -SHRA FEW030 SCT040 BKN060 21/15 Q1023 NOSIG RMK 1CU030 3CU040 7SC060 A3021
RJTT 190130Z 11006KT 9999 VCSH FEW030 BKN070 22/15 Q1023 NOSIG RMK 1CU030 6AC070 A3021
RJTT 190100Z 11006KT 9999 FEW030 SCT070 22/14 Q1023 NOSIG RMK 1CU030 3AC070 A3021
RJTT 190030Z 10005KT 060V130 9999 FEW030 21/15 Q1023 NOSIG RMK 1CU030 A3021
RJTT 190000Z 10005KT 080V140 9999 FEW030 SCT180 21/15 Q1023 NOSIG RMK 1CU030 4AC180 A3022
RJTT 182330Z 12005KT 090V170 9999 FEW030 SCT170 21/15 Q1023 NOSIG RMK 1CU030 3AC170 A3023
RJTT 182300Z 11005KT 9999 FEW030 BKN180 20/15 Q1023 NOSIG RMK 1CU030 7AC180 A3023